createdAt,value
2022-12-15T00:00:36.232Z,11.02
2022-12-15T00:03:38.066Z,10.93
2022-12-15T00:06:39.764Z,10.95
2022-12-15T00:09:41.299Z,12.00
2022-12-15T00:12:42.794Z,11.60
2022-12-15T00:15:48.996Z,11.73
2022-12-15T00:18:50.568Z,13.00
2022-12-15T00:21:52.266Z,10.93
2022-12-15T00:24:53.726Z,10.95
2022-12-15T00:27:56.971Z,10.60
2022-12-15T00:31:02.234Z,11.23
2022-12-15T00:34:04.218Z,10.68
2022-12-15T00:37:05.722Z,10.25
2022-12-15T00:40:07.831Z,10.38
2022-12-15T00:43:09.347Z,10.07
2022-12-15T00:46:10.921Z,10.50
2022-12-15T00:49:12.504Z,9.80
2022-12-15T00:52:15.742Z,9.88
2022-12-15T00:55:17.250Z,10.38
2022-12-15T00:58:18.888Z,11.57
2022-12-15T01:01:20.422Z,10.77
2022-12-15T01:04:22.061Z,10.13
2022-12-15T01:07:23.598Z,11.93
2022-12-15T01:10:25.059Z,11.85
2022-12-15T01:13:26.666Z,11.90
2022-12-15T01:16:28.188Z,12.50
2022-12-15T01:19:29.740Z,12.80
2022-12-15T01:22:31.175Z,13.07
2022-12-15T01:25:32.627Z,12.45
2022-12-15T01:28:34.362Z,12.57
2022-12-15T01:31:35.873Z,11.95
2022-12-15T01:34:37.411Z,12.65
2022-12-15T01:37:39.402Z,13.10
2022-12-15T01:40:40.917Z,13.75
2022-12-15T01:43:42.435Z,12.50
2022-12-15T01:46:44.209Z,12.88
2022-12-15T01:49:45.795Z,12.50
2022-12-15T01:52:52.249Z,12.32
2022-12-15T01:55:54.314Z,11.43
2022-12-15T01:59:00.796Z,12.25
2022-12-15T02:02:02.955Z,10.05
2022-12-15T02:05:06.205Z,11.57
2022-12-15T02:08:09.785Z,12.90
2022-12-15T02:11:49.960Z,10.80
2022-12-15T02:14:57.483Z,10.82
2022-12-15T02:18:07.978Z,10.38
2022-12-15T02:21:27.139Z,11.00
2022-12-15T02:24:28.620Z,10.30
2022-12-15T02:27:56.901Z,9.90
2022-12-15T02:31:06.684Z,11.20
2022-12-15T02:34:18.172Z,9.68
2022-12-15T02:37:27.742Z,9.88
2022-12-15T02:40:29.219Z,11.23
2022-12-15T02:43:36.241Z,11.32
2022-12-15T02:47:09.547Z,11.00
2022-12-15T02:50:39.129Z,11.82
2022-12-15T02:53:59.483Z,10.80
2022-12-15T02:57:13.364Z,12.60
2022-12-15T03:00:16.844Z,12.90
2022-12-15T03:03:21.717Z,17.35
2022-12-15T03:06:26.403Z,17.02
2022-12-15T03:09:28.182Z,19.80
2022-12-15T03:12:29.690Z,19.83
2022-12-15T03:15:35.316Z,20.08
2022-12-15T03:18:37.341Z,21.20
2022-12-15T03:21:38.794Z,20.85
2022-12-15T03:24:40.448Z,25.20
2022-12-15T03:27:41.932Z,21.73
2022-12-15T03:30:43.552Z,21.60
2022-12-15T03:33:46.249Z,20.60
2022-12-15T03:36:47.707Z,21.45
2022-12-15T03:39:49.161Z,21.77
2022-12-15T03:42:50.777Z,21.90
2022-12-15T03:45:52.358Z,20.90
2022-12-15T03:48:54.061Z,20.90
2022-12-15T03:51:55.557Z,20.63
2022-12-15T03:54:57.007Z,19.45
2022-12-15T03:57:58.545Z,17.90
2022-12-15T04:01:10.768Z,18.73
2022-12-15T04:04:12.407Z,18.58
2022-12-15T04:07:14.060Z,16.98
2022-12-15T04:10:15.688Z,18.10
2022-12-15T04:13:17.241Z,18.50
2022-12-15T04:16:20.383Z,18.95
2022-12-15T04:19:22.439Z,17.58
2022-12-15T04:22:23.928Z,17.00
2022-12-15T04:25:26.412Z,17.17
2022-12-15T04:28:27.916Z,19.25
2022-12-15T04:31:33.939Z,19.52
2022-12-15T04:34:35.700Z,19.50
2022-12-15T04:37:37.243Z,20.05
2022-12-15T04:40:38.860Z,19.60
2022-12-15T04:43:40.382Z,17.75
2022-12-15T04:46:41.970Z,18.25
2022-12-15T04:49:43.525Z,16.08
2022-12-15T04:52:44.965Z,17.83
2022-12-15T04:55:46.471Z,16.63
2022-12-15T04:58:48.281Z,15.13
2022-12-15T05:01:50.170Z,16.33
2022-12-15T05:04:51.781Z,17.40
2022-12-15T05:07:57.865Z,16.60
2022-12-15T05:10:59.820Z,16.10
2022-12-15T05:14:01.375Z,16.48
2022-12-15T05:17:03.005Z,16.00
2022-12-15T05:20:05.012Z,17.42
2022-12-15T05:23:06.510Z,16.38
2022-12-15T05:26:08.326Z,15.27
2022-12-15T05:29:09.786Z,16.95
2022-12-15T05:32:11.223Z,16.52
2022-12-15T05:35:12.772Z,17.27
2022-12-15T05:38:14.244Z,16.58
2022-12-15T05:41:15.913Z,15.73
2022-12-15T05:44:18.236Z,15.63
2022-12-15T05:47:19.740Z,15.00
2022-12-15T05:50:22.656Z,14.63
2022-12-15T05:53:24.144Z,16.65
2022-12-15T05:56:27.313Z,16.30
2022-12-15T05:59:28.750Z,13.33
2022-12-15T06:02:30.280Z,15.05
2022-12-15T06:05:31.753Z,13.65
2022-12-15T06:08:35.487Z,14.85
2022-12-15T06:11:37.202Z,14.80
2022-12-15T06:14:38.702Z,17.60
2022-12-15T06:17:40.230Z,15.35
2022-12-15T06:20:41.734Z,18.70
2022-12-15T06:23:43.679Z,17.85
2022-12-15T06:26:45.658Z,22.67
2022-12-15T06:29:47.159Z,21.83
2022-12-15T06:32:49.989Z,21.27
2022-12-15T06:35:51.539Z,21.88
2022-12-15T06:38:52.996Z,20.88
2022-12-15T06:41:54.429Z,20.35
2022-12-15T06:44:55.907Z,20.73
2022-12-15T06:48:01.324Z,20.48
2022-12-15T06:51:04.927Z,18.98
2022-12-15T06:54:06.420Z,18.53
2022-12-15T06:57:08.481Z,19.65
2022-12-15T07:00:10.466Z,18.83
2022-12-15T07:03:15.099Z,19.25
2022-12-15T07:06:17.747Z,18.50
2022-12-15T07:09:19.299Z,20.85
2022-12-15T07:12:20.836Z,18.67
2022-12-15T07:15:22.282Z,18.00
2022-12-15T07:18:23.776Z,18.88
2022-12-15T07:21:26.284Z,18.80
2022-12-15T07:24:28.033Z,16.77
2022-12-15T07:27:29.512Z,17.33
2022-12-15T07:30:36.779Z,16.15
2022-12-15T07:33:40.153Z,14.90
2022-12-15T07:40:20.301Z,14.38
2022-12-15T07:43:22.445Z,14.90
2022-12-15T07:46:24.538Z,14.25
2022-12-15T07:49:27.105Z,14.80
2022-12-15T07:52:28.683Z,14.88
2022-12-15T07:55:57.243Z,13.98
2022-12-15T07:58:51.616Z,13.68
2022-12-15T08:01:53.261Z,14.30
2022-12-15T08:04:54.880Z,14.63
2022-12-15T08:07:57.799Z,14.18
2022-12-15T08:10:59.516Z,15.50
2022-12-15T08:14:03.007Z,16.95
2022-12-15T08:17:04.993Z,19.83
2022-12-15T08:20:10.121Z,20.92
2022-12-15T08:23:11.878Z,20.42
2022-12-15T08:26:17.001Z,21.15
2022-12-15T08:29:49.646Z,19.80
2022-12-15T08:32:40.016Z,19.33
2022-12-15T08:35:56.223Z,20.90
2022-12-15T08:39:00.437Z,21.60
2022-12-15T08:42:01.899Z,24.17
2022-12-15T08:45:04.278Z,24.55
2022-12-15T08:48:05.842Z,23.77
2022-12-15T08:51:07.362Z,26.20
2022-12-15T08:54:08.851Z,27.38
2022-12-15T08:57:10.288Z,25.42
2022-12-15T09:00:12.281Z,25.42
2022-12-15T09:03:13.785Z,26.13
2022-12-15T09:06:21.351Z,26.30
2022-12-15T09:09:23.074Z,28.27
2022-12-15T09:12:24.588Z,29.50
2022-12-15T09:15:45.428Z,31.48
2022-12-15T09:18:50.079Z,29.42
2022-12-15T09:21:51.649Z,31.98
2022-12-15T09:24:53.197Z,34.28
2022-12-15T09:27:54.802Z,33.70
2022-12-15T09:31:17.359Z,31.38
2022-12-15T09:34:18.919Z,31.17
2022-12-15T09:37:20.766Z,28.58
2022-12-15T09:40:22.360Z,27.50
2022-12-15T09:43:35.900Z,21.60
2022-12-15T09:46:50.181Z,20.02
2022-12-15T09:49:57.351Z,22.05
2022-12-15T09:53:00.749Z,31.45
2022-12-15T09:56:07.281Z,32.53
2022-12-15T09:59:28.897Z,28.20
2022-12-15T10:03:00.965Z,28.75
2022-12-15T10:06:21.840Z,25.65
2022-12-15T10:09:26.597Z,29.75
2022-12-15T10:12:37.015Z,31.65
2022-12-15T10:15:50.436Z,34.63
2022-12-15T10:19:05.180Z,38.05
2022-12-15T10:22:13.154Z,35.40
2022-12-15T10:25:30.356Z,32.85
2022-12-15T10:29:10.604Z,26.83
2022-12-15T10:32:17.092Z,25.83
2022-12-15T10:35:25.277Z,23.15
2022-12-15T10:38:41.600Z,21.92
2022-12-15T10:41:43.897Z,20.77
2022-12-15T10:48:19.340Z,29.05
2022-12-15T10:51:24.931Z,24.08
2022-12-15T10:54:35.555Z,49.03
2022-12-15T10:57:37.059Z,71.50
2022-12-15T11:00:38.567Z,65.80
2022-12-15T11:03:41.546Z,56.38
2022-12-15T11:06:43.388Z,43.40
2022-12-15T11:09:48.200Z,43.15
2022-12-15T11:13:15.700Z,38.67
2022-12-15T11:16:19.283Z,19.52
2022-12-15T11:19:25.761Z,16.23
2022-12-15T11:22:39.833Z,14.77
2022-12-15T11:26:19.626Z,14.07
2022-12-15T11:29:46.071Z,14.35
2022-12-15T11:33:02.022Z,13.63
2022-12-15T11:36:09.476Z,33.17
2022-12-15T11:39:23.255Z,34.38
2022-12-15T11:42:44.262Z,27.15
2022-12-15T11:46:02.147Z,22.13
2022-12-15T11:49:41.359Z,9.43
2022-12-15T11:53:07.952Z,9.40
2022-12-15T11:56:21.515Z,8.70
2022-12-15T11:59:46.052Z,8.17
2022-12-15T12:03:12.749Z,8.45
2022-12-15T12:06:29.788Z,8.25
2022-12-15T12:09:40.621Z,14.38
2022-12-15T12:12:50.608Z,17.20
2022-12-15T12:16:22.853Z,14.55
2022-12-15T12:19:50.897Z,16.95
2022-12-15T12:23:11.135Z,25.65
2022-12-15T12:26:38.198Z,28.20
2022-12-15T12:29:48.778Z,23.45
2022-12-15T12:33:02.105Z,12.82
2022-12-15T12:36:14.701Z,10.88
2022-12-15T12:39:22.555Z,10.88
2022-12-15T12:42:37.721Z,10.20
2022-12-15T12:45:50.348Z,10.48
2022-12-15T12:49:02.899Z,10.15
2022-12-15T12:52:06.608Z,10.10
2022-12-15T12:55:26.682Z,10.07
2022-12-15T12:58:41.758Z,8.15
2022-12-15T13:01:43.379Z,8.45
2022-12-15T13:05:18.884Z,8.35
2022-12-15T13:08:28.353Z,7.60
2022-12-15T13:11:58.226Z,7.28
2022-12-15T13:15:04.520Z,6.55
2022-12-15T13:18:54.429Z,8.38
2022-12-15T13:21:56.044Z,7.13
2022-12-15T13:24:57.660Z,7.63
2022-12-15T13:28:10.868Z,7.45
2022-12-15T13:31:18.550Z,9.05
2022-12-15T13:34:23.002Z,9.88
2022-12-15T13:40:44.571Z,11.30
2022-12-15T13:43:48.830Z,11.27
2022-12-15T13:46:53.656Z,11.23
2022-12-15T13:50:14.831Z,12.65
2022-12-15T13:53:20.912Z,12.60
2022-12-15T13:56:37.618Z,12.88
2022-12-15T13:59:40.051Z,14.07
2022-12-15T14:02:41.700Z,13.20
2022-12-15T14:05:49.747Z,13.13
2022-12-15T14:08:52.884Z,12.93
2022-12-15T14:11:54.892Z,13.15
2022-12-15T14:14:56.613Z,14.13
2022-12-15T14:18:01.036Z,13.35
2022-12-15T14:21:07.257Z,14.88
2022-12-15T14:24:42.053Z,14.50
2022-12-15T14:27:43.694Z,14.57
2022-12-15T14:30:45.277Z,16.13
2022-12-15T14:33:58.522Z,15.30
2022-12-15T14:37:03.273Z,16.58
2022-12-15T14:40:05.486Z,16.75
2022-12-15T14:43:15.845Z,16.40
2022-12-15T14:46:21.625Z,16.08
2022-12-15T14:49:28.359Z,15.50
2022-12-15T14:52:36.532Z,15.65
2022-12-15T14:55:39.312Z,16.08
2022-12-15T14:58:41.652Z,18.20
2022-12-15T15:03:04.066Z,20.55
2022-12-15T15:05:26.265Z,15.60
2022-12-15T15:08:34.532Z,17.57
2022-12-15T15:11:37.844Z,15.20
2022-12-15T15:14:56.334Z,17.20
2022-12-15T15:18:04.066Z,16.45
2022-12-15T15:21:07.240Z,15.10
2022-12-15T15:24:11.743Z,14.73
2022-12-15T15:27:24.924Z,14.95
2022-12-15T15:30:26.429Z,15.68
2022-12-15T15:33:27.925Z,16.70
2022-12-15T15:36:35.415Z,14.90
2022-12-15T15:39:36.884Z,15.25
2022-12-15T15:42:38.314Z,14.88
2022-12-15T15:45:41.711Z,13.35
2022-12-15T15:48:50.328Z,13.37
2022-12-15T15:51:51.801Z,16.88
2022-12-15T15:54:53.676Z,20.48
2022-12-15T15:57:55.107Z,20.80
2022-12-15T16:00:56.591Z,22.30
2022-12-15T16:03:58.094Z,22.30
2022-12-15T16:06:59.608Z,23.27
2022-12-15T16:10:01.205Z,23.10
2022-12-15T16:13:02.682Z,22.77
2022-12-15T16:16:05.353Z,22.73
2022-12-15T16:19:06.970Z,22.80
2022-12-15T16:22:16.692Z,26.95
2022-12-15T16:25:26.679Z,27.42
2022-12-15T16:28:30.951Z,28.75
2022-12-15T16:31:41.005Z,32.58
2022-12-15T16:34:43.340Z,33.45
2022-12-15T16:37:52.295Z,33.40
2022-12-15T16:40:58.123Z,34.95
2022-12-15T16:43:59.660Z,34.88
2022-12-15T16:47:01.196Z,36.10
2022-12-15T16:50:02.747Z,32.53
2022-12-15T16:53:05.186Z,34.95
2022-12-15T16:56:08.338Z,34.35
2022-12-15T16:59:34.647Z,33.65
2022-12-15T17:02:37.186Z,33.70
2022-12-15T17:05:39.726Z,34.13
2022-12-15T17:08:48.038Z,33.88
2022-12-15T17:11:50.991Z,36.22
2022-12-15T17:14:52.453Z,35.75
2022-12-15T17:17:54.992Z,36.15
2022-12-15T17:21:02.743Z,36.53
2022-12-15T17:24:07.427Z,37.17
2022-12-15T17:27:28.460Z,34.22
2022-12-15T17:30:29.928Z,34.42
2022-12-15T17:33:34.796Z,35.58
2022-12-15T17:36:38.038Z,35.35
2022-12-15T17:39:40.799Z,34.20
2022-12-15T17:42:43.059Z,35.78
2022-12-15T17:45:45.201Z,36.90
2022-12-15T17:48:46.664Z,37.35
2022-12-15T17:51:49.029Z,38.97
2022-12-15T17:54:51.912Z,40.60
2022-12-15T17:57:54.023Z,42.85
2022-12-15T18:00:56.248Z,44.30
2022-12-15T18:03:57.865Z,41.58
2022-12-15T18:07:02.034Z,41.08
2022-12-15T18:10:04.720Z,44.13
2022-12-15T18:13:15.812Z,43.35
2022-12-15T18:16:17.313Z,40.55
2022-12-15T18:19:18.850Z,38.47
2022-12-15T18:22:23.257Z,36.58
2022-12-15T18:25:27.353Z,34.80
2022-12-15T18:28:31.780Z,37.05
2022-12-15T18:31:33.722Z,35.70
2022-12-15T18:34:35.217Z,36.10
2022-12-15T18:37:36.673Z,34.22
2022-12-15T18:40:38.383Z,32.55
2022-12-15T18:43:41.523Z,29.63
2022-12-15T18:46:47.794Z,29.33
2022-12-15T18:49:49.831Z,26.50
2022-12-15T18:52:59.687Z,31.15
2022-12-15T18:56:03.089Z,31.23
2022-12-15T18:59:05.878Z,34.28
2022-12-15T19:02:07.951Z,37.33
2022-12-15T19:05:09.923Z,34.40
2022-12-15T19:08:16.042Z,44.92
2022-12-15T19:11:28.522Z,47.50
2022-12-15T19:14:30.013Z,47.70
2022-12-15T19:17:31.609Z,48.97
2022-12-15T19:20:33.175Z,46.95
2022-12-15T19:23:35.243Z,42.40
2022-12-15T19:26:37.005Z,40.30
2022-12-15T19:29:40.190Z,43.72
2022-12-15T19:32:41.629Z,44.13
2022-12-15T19:35:46.655Z,45.22
2022-12-15T19:38:52.135Z,47.60
2022-12-15T19:41:54.141Z,47.30
2022-12-15T19:44:56.499Z,49.65
2022-12-15T19:47:58.598Z,47.78
2022-12-15T19:51:00.188Z,47.38
2022-12-15T19:54:01.850Z,47.80
2022-12-15T19:57:03.389Z,47.45
2022-12-15T20:00:19.728Z,47.22
2022-12-15T20:03:21.748Z,44.75
2022-12-15T20:06:26.561Z,45.88
2022-12-15T20:09:28.198Z,45.15
2022-12-15T20:12:29.625Z,44.05
2022-12-15T20:15:31.140Z,43.03
2022-12-15T20:18:32.909Z,40.65
2022-12-15T20:21:37.687Z,40.10
2022-12-15T20:24:39.244Z,37.88
2022-12-15T20:27:40.795Z,38.63
2022-12-15T20:30:42.703Z,36.33
2022-12-15T20:33:45.193Z,36.95
2022-12-15T20:36:46.764Z,37.45
2022-12-15T20:39:52.576Z,34.53
2022-12-15T20:42:57.303Z,34.38
2022-12-15T20:46:08.266Z,32.30
2022-12-15T20:49:19.109Z,31.00
2022-12-15T20:52:23.712Z,31.73
2022-12-15T20:55:25.404Z,30.98
2022-12-15T20:58:32.722Z,32.60
2022-12-15T21:01:36.073Z,31.75
2022-12-15T21:04:37.725Z,32.45
2022-12-15T21:07:39.249Z,29.00
2022-12-15T21:10:40.726Z,30.60
2022-12-15T21:13:42.772Z,34.08
2022-12-15T21:16:44.468Z,31.90
2022-12-15T21:19:46.522Z,34.08
2022-12-15T21:22:48.052Z,32.95
2022-12-15T21:25:50.423Z,34.22
2022-12-15T21:28:58.408Z,43.03
2022-12-15T21:31:59.910Z,42.40
2022-12-15T21:35:01.315Z,34.70
2022-12-15T21:38:04.114Z,35.58
2022-12-15T21:41:11.695Z,36.38
2022-12-15T21:44:14.347Z,35.63
2022-12-15T21:47:30.725Z,36.20
2022-12-15T21:50:32.757Z,36.03
2022-12-15T21:53:34.249Z,33.50
2022-12-15T21:56:35.683Z,33.75
2022-12-15T21:59:37.261Z,35.40
2022-12-15T22:02:39.731Z,35.40
2022-12-15T22:05:41.366Z,30.67
2022-12-15T22:08:42.829Z,30.67
2022-12-15T22:11:47.189Z,32.33
2022-12-15T22:14:49.202Z,32.63
2022-12-15T22:17:50.621Z,32.75
2022-12-15T22:20:52.090Z,32.83
2022-12-15T22:23:53.562Z,36.10
2022-12-15T22:26:56.489Z,35.63
2022-12-15T22:29:58.029Z,34.38
2022-12-15T22:32:59.624Z,36.03
2022-12-15T22:36:01.067Z,36.38
2022-12-15T22:39:07.466Z,33.83
2022-12-15T22:42:16.671Z,33.83
2022-12-15T22:45:20.130Z,32.00
2022-12-15T22:48:24.057Z,35.75
2022-12-15T22:51:25.506Z,35.20
2022-12-15T22:54:28.997Z,32.20
2022-12-15T22:57:30.638Z,33.63
2022-12-15T23:00:32.086Z,32.75
2022-12-15T23:03:34.559Z,31.23
2022-12-15T23:06:36.318Z,29.00
2022-12-15T23:09:38.345Z,29.92
2022-12-15T23:12:40.108Z,30.77
2022-12-15T23:15:41.712Z,29.27
2022-12-15T23:18:43.859Z,29.27
2022-12-15T23:21:45.361Z,26.52
2022-12-15T23:24:46.806Z,26.60
2022-12-15T23:27:48.231Z,23.08
2022-12-15T23:30:53.864Z,21.95
2022-12-15T23:33:55.408Z,20.23
2022-12-15T23:36:56.869Z,18.65
2022-12-15T23:39:58.295Z,18.67
2022-12-15T23:42:59.722Z,17.58
2022-12-15T23:46:04.269Z,18.98
2022-12-15T23:49:05.773Z,17.38
2022-12-15T23:52:07.253Z,16.92
2022-12-15T23:55:10.237Z,17.50
2022-12-15T23:58:11.818Z,18.48
